Time;durP1;ratioP1;P1;durP2;ratioP2;P2;SDS_P1;SDS_P2;PMS_P1;PMS_P2;Temp;Humidity;BMP_temperature;BMP_pressure;BME280_temperature;BME280_humidity;BME280_pressure;Samples;Min_cycle;Max_cycle;Signal;HPM_P1;HPM_P2
2023/03/30 00:01:21;;;;;;;10.75;8.13;;;10.90;99.90;;;;;;5089929;27;20494;-73
2023/03/30 00:03:48;;;;;;;14.57;8.05;;;11.00;99.90;;;;;;5102100;27;20043;-73
2023/03/30 00:06:21;;;;;;;13.98;8.18;;;11.00;99.90;;;;;;5105639;27;20107;-72
2023/03/30 00:08:48;;;;;;;12.40;8.27;;;11.00;99.90;;;;;;5100857;27;20103;-73
2023/03/30 00:11:16;;;;;;;11.90;7.63;;;11.00;99.90;;;;;;5104172;27;20039;-72
2023/03/30 00:13:43;;;;;;;12.27;7.65;;;11.00;99.90;;;;;;5103618;27;20472;-72
2023/03/30 00:16:13;;;;;;;11.02;7.93;;;10.60;99.90;;;;;;5118403;27;20588;-72
2023/03/30 00:18:39;;;;;;;12.73;8.32;;;11.10;99.90;;;;;;5070288;27;20473;-72
2023/03/30 00:21:09;;;;;;;12.75;7.43;;;11.10;99.90;;;;;;5104002;27;20046;-72
2023/03/30 00:23:36;;;;;;;11.02;8.23;;;11.10;99.90;;;;;;5086328;27;20044;-72
2023/03/30 00:26:04;;;;;;;11.32;8.55;;;11.10;99.90;;;;;;5100856;27;20046;-73
2023/03/30 00:28:30;;;;;;;11.00;7.95;;;11.10;99.90;;;;;;5136309;27;20846;-73
2023/03/30 00:30:56;;;;;;;10.70;7.10;;;11.10;99.90;;;;;;5089092;27;20035;-73
2023/03/30 00:33:22;;;;;;;11.57;7.30;;;11.10;99.90;;;;;;5102879;27;20042;-72
2023/03/30 00:35:56;;;;;;;10.90;7.60;;;11.10;99.90;;;;;;5097348;27;20043;-73
2023/03/30 00:38:23;;;;;;;12.60;7.30;;;11.10;99.90;;;;;;5083963;27;20039;-73
2023/03/30 00:40:54;;;;;;;12.93;7.70;;;11.10;99.90;;;;;;5099166;27;20405;-73
2023/03/30 00:43:20;;;;;;;9.10;6.95;;;11.10;99.90;;;;;;5102500;27;20172;-73
2023/03/30 00:45:46;;;;;;;10.38;7.10;;;11.10;99.90;;;;;;5085509;27;20566;-73
2023/03/30 00:48:18;;;;;;;12.63;7.20;;;11.10;99.90;;;;;;5119298;27;20485;-73
2023/03/30 00:50:51;;;;;;;15.82;9.35;;;11.10;99.90;;;;;;5137488;27;20053;-74
2023/03/30 00:53:24;;;;;;;14.88;7.68;;;11.10;99.90;;;;;;5136024;27;20054;-73
2023/03/30 00:55:52;;;;;;;13.57;7.50;;;11.10;99.90;;;;;;5101224;27;20146;-74
2023/03/30 00:58:21;;;;;;;10.70;7.63;;;11.00;99.90;;;;;;5117091;27;20055;-74
2023/03/30 01:00:47;;;;;;;12.02;7.05;;;11.00;99.90;;;;;;5102930;28;20424;-73
2023/03/30 01:03:18;;;;;;;13.23;7.65;;;11.00;99.90;;;;;;5103438;27;20050;-73
2023/03/30 01:05:47;;;;;;;13.63;7.93;;;11.00;99.90;;;;;;5104024;27;20115;-74
2023/03/30 01:08:15;;;;;;;10.93;6.88;;;11.00;99.90;;;;;;5102965;27;20093;-73
2023/03/30 01:10:42;;;;;;;11.02;7.53;;;11.00;99.90;;;;;;5102695;27;20104;-74
2023/03/30 01:13:09;;;;;;;12.02;6.90;;;11.00;99.90;;;;;;5118888;27;20054;-74
2023/03/30 01:15:41;;;;;;;10.65;6.82;;;11.10;99.90;;;;;;5079701;27;20150;-74
2023/03/30 01:18:16;;;;;;;12.98;7.35;;;11.10;99.90;;;;;;5138797;27;20047;-72
2023/03/30 01:20:48;;;;;;;13.98;7.65;;;11.10;99.90;;;;;;5117724;27;20035;-73
2023/03/30 01:23:38;;;;;;;13.25;6.75;;;11.10;99.90;;;;;;5102025;27;20062;-73
2023/03/30 01:26:45;;;;;;;11.35;7.05;;;11.10;99.90;;;;;;5100447;27;20564;-73
2023/03/30 01:29:48;;;;;;;10.32;6.63;;;11.10;99.90;;;;;;5120652;27;20373;-73
2023/03/30 01:32:43;;;;;;;14.57;6.65;;;11.10;99.90;;;;;;5102099;27;20440;-72
2023/03/30 01:35:15;;;;;;;10.75;6.22;;;10.40;99.90;;;;;;5083739;28;20047;-74
2023/03/30 01:38:14;;;;;;;12.13;6.63;;;11.10;99.90;;;;;;5103502;27;20073;-73
2023/03/30 01:41:21;;;;;;;12.68;6.50;;;11.00;99.90;;;;;;5134698;27;20051;-73
2023/03/30 01:44:00;;;;;;;10.50;5.80;;;11.00;99.90;;;;;;5103127;28;20047;-74
2023/03/30 01:46:31;;;;;;;13.68;6.15;;;11.00;99.90;;;;;;5103575;27;20055;-74
2023/03/30 01:49:00;;;;;;;11.20;5.25;;;11.00;99.90;;;;;;5101646;27;20119;-74
2023/03/30 01:51:32;;;;;;;10.45;4.50;;;11.00;99.90;;;;;;5102684;27;20809;-74
2023/03/30 01:54:16;;;;;;;11.10;4.80;;;11.00;99.90;;;;;;5117259;27;20215;-74
2023/03/30 01:57:19;;;;;;;9.30;4.40;;;11.00;99.90;;;;;;5117594;27;20062;-74
2023/03/30 01:59:55;;;;;;;7.20;3.40;;;11.10;99.90;;;;;;5033023;28;20079;-73
2023/03/30 02:02:24;;;;;;;7.95;3.17;;;11.10;99.90;;;;;;5092496;27;20083;-74
2023/03/30 02:04:52;;;;;;;9.23;3.53;;;11.10;99.90;;;;;;5116852;27;20408;-73
2023/03/30 02:07:22;;;;;;;6.90;3.00;;;11.10;99.90;;;;;;5102183;28;20460;-73
2023/03/30 02:09:52;;;;;;;9.07;3.20;;;11.10;99.90;;;;;;5085048;27;20137;-73
2023/03/30 02:12:21;;;;;;;8.48;3.67;;;11.00;99.90;;;;;;5101504;28;20046;-73
2023/03/30 02:14:48;;;;;;;11.38;3.45;;;11.00;99.90;;;;;;5120857;27;20145;-74
2023/03/30 02:17:21;;;;;;;11.88;3.85;;;11.00;99.90;;;;;;5105933;27;20603;-73
2023/03/30 02:19:48;;;;;;;6.72;2.97;;;11.00;99.90;;;;;;5085658;27;20039;-73
2023/03/30 02:22:16;;;;;;;7.07;2.90;;;11.00;99.90;;;;;;5104919;27;20067;-73
2023/03/30 02:24:45;;;;;;;8.20;2.80;;;11.00;99.90;;;;;;5105240;27;20397;-75
2023/03/30 02:27:11;;;;;;;11.73;3.38;;;11.00;99.90;;;;;;5139070;27;20481;-73
2023/03/30 02:29:41;;;;;;;8.52;3.00;;;11.00;99.90;;;;;;5087108;27;20082;-75
2023/03/30 02:32:15;;;;;;;9.02;2.90;;;10.90;99.90;;;;;;5089997;27;20093;-73
2023/03/30 02:35:01;;;;;;;7.88;3.55;;;10.90;99.90;;;;;;5103652;27;21223;-72
2023/03/30 02:38:02;;;;;;;12.05;3.13;;;10.80;99.90;;;;;;5103687;27;20043;-73
2023/03/30 02:40:53;;;;;;;9.18;3.28;;;10.80;99.90;;;;;;5070664;27;20062;-73
2023/03/30 02:43:56;;;;;;;10.48;3.08;;;10.70;99.90;;;;;;5136199;27;20131;-73
2023/03/30 02:46:53;;;;;;;7.35;3.10;;;10.70;99.90;;;;;;5119476;27;20103;-73
2023/03/30 02:49:37;;;;;;;8.05;3.10;;;10.60;99.90;;;;;;5120552;27;20480;-73
2023/03/30 02:52:39;;;;;;;9.80;3.55;;;10.60;99.90;;;;;;5118936;27;20059;-73
2023/03/30 02:55:23;;;;;;;11.90;3.38;;;10.60;99.90;;;;;;5098307;27;20130;-74
2023/03/30 02:58:17;;;;;;;12.23;3.28;;;10.60;99.90;;;;;;5099884;27;20055;-74
2023/03/30 03:01:24;;;;;;;13.32;3.13;;;10.60;99.90;;;;;;5118638;27;20074;-73
2023/03/30 03:03:53;;;;;;;11.50;3.30;;;10.60;99.90;;;;;;5003464;28;20046;-73
2023/03/30 03:06:20;;;;;;;12.88;3.60;;;10.50;99.90;;;;;;5089401;27;20061;-74
2023/03/30 03:08:49;;;;;;;8.63;3.90;;;10.50;99.90;;;;;;5120770;27;20074;-73
2023/03/30 03:11:15;;;;;;;11.90;3.70;;;10.60;99.90;;;;;;5139129;27;20118;-73
2023/03/30 03:13:41;;;;;;;15.52;3.15;;;10.60;99.90;;;;;;5088825;27;20130;-74
2023/03/30 03:16:10;;;;;;;11.20;3.45;;;10.50;99.90;;;;;;5104768;27;20051;-73
2023/03/30 03:18:40;;;;;;;14.85;3.35;;;10.50;99.90;;;;;;5103999;27;20164;-73
2023/03/30 03:21:07;;;;;;;14.20;3.28;;;10.50;99.90;;;;;;5103681;27;20047;-73
2023/03/30 03:23:34;;;;;;;12.02;3.40;;;10.50;99.90;;;;;;5137482;27;20092;-73
2023/03/30 03:26:00;;;;;;;12.60;3.45;;;10.50;99.90;;;;;;5072389;27;20049;-73
2023/03/30 03:28:30;;;;;;;9.38;2.78;;;10.50;99.90;;;;;;5086398;27;20047;-72
2023/03/30 03:30:58;;;;;;;12.88;3.40;;;10.50;99.90;;;;;;5102447;27;20093;-74
2023/03/30 03:33:26;;;;;;;11.93;3.47;;;10.50;99.90;;;;;;5101488;27;20039;-73
2023/03/30 03:35:53;;;;;;;9.07;3.03;;;10.50;99.90;;;;;;5120488;27;20043;-72
2023/03/30 03:38:23;;;;;;;13.10;3.22;;;10.50;99.90;;;;;;5120807;27;21867;-74
2023/03/30 03:40:53;;;;;;;11.98;3.72;;;10.50;99.90;;;;;;5082534;27;20043;-72
2023/03/30 03:43:20;;;;;;;9.50;3.20;;;10.50;99.90;;;;;;5121023;27;20052;-73
2023/03/30 03:45:46;;;;;;;15.00;3.28;;;10.50;99.90;;;;;;5101866;27;20051;-73
2023/03/30 03:48:14;;;;;;;14.68;3.58;;;10.50;99.90;;;;;;5103204;27;20488;-72
2023/03/30 03:50:41;;;;;;;7.55;3.00;;;10.60;99.90;;;;;;5085927;27;20488;-73
2023/03/30 03:53:08;;;;;;;12.38;3.13;;;10.60;99.90;;;;;;5120591;27;20135;-73
2023/03/30 03:55:34;;;;;;;14.15;3.50;;;10.60;99.90;;;;;;5087466;27;20459;-74
2023/03/30 03:58:04;;;;;;;10.73;3.63;;;10.60;99.90;;;;;;5135082;27;20691;-73
2023/03/30 04:00:30;;;;;;;13.55;3.35;;;10.70;99.90;;;;;;5133851;27;20047;-72
2023/03/30 04:02:56;;;;;;;13.65;3.50;;;10.70;99.90;;;;;;5133104;27;20075;-74
2023/03/30 04:05:25;;;;;;;14.20;4.18;;;10.70;99.90;;;;;;5101957;27;20044;-74
2023/03/30 04:07:52;;;;;;;12.30;3.30;;;10.70;99.90;;;;;;5117756;27;20615;-73
2023/03/30 04:10:20;;;;;;;12.55;3.17;;;10.70;99.90;;;;;;5071250;27;20054;-73
2023/03/30 04:12:49;;;;;;;15.07;3.40;;;10.60;99.90;;;;;;5116460;27;20058;-74
2023/03/30 04:15:15;;;;;;;11.77;2.78;;;10.60;99.90;;;;;;5103705;27;20051;-73
2023/03/30 04:17:43;;;;;;;9.82;2.90;;;10.60;99.90;;;;;;5104380;27;20047;-73
2023/03/30 04:20:11;;;;;;;10.52;3.00;;;10.60;99.90;;;;;;5086124;27;20583;-74
2023/03/30 04:22:40;;;;;;;14.55;3.63;;;10.60;99.90;;;;;;5102252;27;20081;-73
2023/03/30 04:25:13;;;;;;;13.02;3.33;;;10.60;99.90;;;;;;5118736;27;20054;-74
2023/03/30 04:27:42;;;;;;;13.57;3.45;;;10.60;99.90;;;;;;5084066;27;20629;-74
2023/03/30 04:30:10;;;;;;;13.95;3.50;;;10.70;99.90;;;;;;5136823;27;20038;-73
2023/03/30 04:32:40;;;;;;;10.07;3.33;;;10.70;99.90;;;;;;5089567;27;20660;-73
2023/03/30 04:35:06;;;;;;;11.20;2.97;;;10.70;99.90;;;;;;5103994;27;20042;-73
2023/03/30 04:37:34;;;;;;;11.13;3.13;;;10.70;99.90;;;;;;5102458;27;20075;-73
2023/03/30 04:40:06;;;;;;;14.63;4.03;;;10.70;99.90;;;;;;5092341;27;20549;-74
2023/03/30 04:42:36;;;;;;;14.82;3.90;;;10.70;99.90;;;;;;5138806;27;20151;-73
2023/03/30 04:45:09;;;;;;;13.05;3.90;;;10.70;99.90;;;;;;5143736;27;20073;-74
2023/03/30 04:47:38;;;;;;;17.58;3.95;;;10.70;99.90;;;;;;5124279;27;20086;-74
2023/03/30 04:50:04;;;;;;;14.20;4.15;;;10.70;99.90;;;;;;5124027;27;20070;-73
2023/03/30 04:52:30;;;;;;;15.07;3.35;;;10.70;99.90;;;;;;5084006;27;20066;-73
2023/03/30 04:54:56;;;;;;;10.05;3.35;;;10.60;99.90;;;;;;5105134;27;20050;-74
2023/03/30 04:57:22;;;;;;;17.65;4.07;;;10.60;99.90;;;;;;5082558;27;20058;-74
2023/03/30 04:59:48;;;;;;;12.57;3.70;;;10.60;99.90;;;;;;5121910;27;20102;-74
2023/03/30 05:02:15;;;;;;;14.18;4.03;;;10.60;99.90;;;;;;5136235;27;20075;-73
2023/03/30 05:04:41;;;;;;;16.20;3.80;;;10.50;99.90;;;;;;5087005;27;20062;-74
2023/03/30 05:07:07;;;;;;;15.13;3.47;;;10.50;99.90;;;;;;5100983;27;20573;-74
2023/03/30 05:09:33;;;;;;;16.27;4.00;;;10.50;99.90;;;;;;5115047;27;20050;-73
2023/03/30 05:11:59;;;;;;;15.70;3.40;;;10.50;99.90;;;;;;5117949;27;20043;-73
2023/03/30 05:14:24;;;;;;;12.57;3.40;;;10.50;99.90;;;;;;5121146;27;20039;-73
2023/03/30 05:16:52;;;;;;;11.98;3.40;;;10.40;99.90;;;;;;5101125;27;20043;-74
2023/03/30 05:19:18;;;;;;;19.38;3.42;;;10.40;99.90;;;;;;5107145;27;20405;-74
2023/03/30 05:21:43;;;;;;;13.18;3.50;;;10.40;99.90;;;;;;5116513;27;20042;-74
2023/03/30 05:24:12;;;;;;;14.57;3.72;;;10.40;99.90;;;;;;5122232;27;20154;-73
2023/03/30 05:26:38;;;;;;;12.38;3.25;;;10.40;99.90;;;;;;5100944;27;20088;-74
2023/03/30 05:29:05;;;;;;;15.10;3.97;;;10.40;99.90;;;;;;5103459;28;20044;-73
2023/03/30 05:31:34;;;;;;;11.45;3.17;;;10.40;99.90;;;;;;5085151;27;20046;-73
2023/03/30 05:34:00;;;;;;;13.43;2.92;;;10.40;99.90;;;;;;5101690;27;20043;-73
2023/03/30 05:36:25;;;;;;;14.52;5.18;;;10.40;99.90;;;;;;5135255;27;20074;-73
2023/03/30 05:38:53;;;;;;;14.73;3.80;;;10.50;99.90;;;;;;5117413;27;20129;-74
2023/03/30 05:41:18;;;;;;;11.85;2.72;;;10.40;99.90;;;;;;5103749;27;20099;-73
2023/03/30 05:43:46;;;;;;;16.33;3.25;;;10.50;99.90;;;;;;5100007;27;20047;-74
2023/03/30 05:46:12;;;;;;;15.32;3.92;;;10.50;99.90;;;;;;5083568;27;20150;-75
2023/03/30 05:48:37;;;;;;;14.40;3.67;;;10.50;99.90;;;;;;5098897;27;20660;-74
2023/03/30 05:51:03;;;;;;;14.98;3.65;;;10.50;99.90;;;;;;5134774;27;20054;-74
2023/03/30 05:53:30;;;;;;;15.38;3.85;;;10.50;99.90;;;;;;5106814;27;20043;-74
2023/03/30 05:55:56;;;;;;;11.77;2.85;;;10.50;99.90;;;;;;5102961;27;20061;-74
2023/03/30 05:58:22;;;;;;;11.07;3.10;;;10.50;99.90;;;;;;5136857;27;20205;-75
2023/03/30 06:00:48;;;;;;;12.65;3.25;;;10.50;99.90;;;;;;5104032;27;20740;-73
2023/03/30 06:03:14;;;;;;;12.65;3.28;;;10.50;99.90;;;;;;5100701;27;20126;-76
2023/03/30 06:05:44;;;;;;;14.40;3.75;;;10.60;99.90;;;;;;5101289;27;20047;-74
2023/03/30 06:08:12;;;;;;;14.40;3.17;;;10.60;99.90;;;;;;5120750;27;20051;-75
2023/03/30 06:10:38;;;;;;;14.00;3.20;;;10.50;99.90;;;;;;5120816;27;20046;-74
2023/03/30 06:13:04;;;;;;;14.65;3.50;;;10.50;99.90;;;;;;5102819;27;20088;-74
2023/03/30 06:15:30;;;;;;;12.68;3.80;;;10.60;99.90;;;;;;5135920;27;20088;-73
2023/03/30 06:17:56;;;;;;;14.95;3.67;;;10.60;99.90;;;;;;5069260;27;20130;-74
2023/03/30 06:20:23;;;;;;;16.63;4.07;;;10.50;99.90;;;;;;5102007;27;20066;-74
2023/03/30 06:22:50;;;;;;;14.80;3.75;;;10.50;99.90;;;;;;5118272;27;20584;-72
2023/03/30 06:25:18;;;;;;;17.83;4.07;;;10.50;99.90;;;;;;5100154;27;20042;-72
2023/03/30 06:27:49;;;;;;;22.00;3.88;;;10.50;99.90;;;;;;5116837;27;20115;-73
2023/03/30 06:30:19;;;;;;;23.58;4.82;;;10.50;99.90;;;;;;5120939;27;20141;-73
2023/03/30 06:32:52;;;;;;;19.73;4.30;;;10.50;99.90;;;;;;5136854;27;20891;-74
2023/03/30 06:35:17;;;;;;;22.35;4.45;;;10.50;99.90;;;;;;5103689;27;20158;-74
2023/03/30 06:37:43;;;;;;;21.73;4.28;;;10.60;99.90;;;;;;5083485;27;20496;-72
2023/03/30 06:40:12;;;;;;;17.63;4.13;;;10.50;99.90;;;;;;5087496;27;20043;-73
2023/03/30 06:42:43;;;;;;;20.13;4.45;;;10.60;99.90;;;;;;5091123;27;20054;-73
2023/03/30 06:45:10;;;;;;;19.00;3.78;;;10.60;99.90;;;;;;5094576;27;20043;-72
2023/03/30 06:47:36;;;;;;;21.00;4.10;;;10.60;99.90;;;;;;5123617;27;20035;-71
2023/03/30 06:50:04;;;;;;;20.63;4.18;;;10.60;99.90;;;;;;5123757;27;20050;-72
2023/03/30 06:52:34;;;;;;;21.85;4.32;;;10.60;99.90;;;;;;5106181;27;20049;-72
2023/03/30 06:54:59;;;;;;;19.50;5.05;;;10.70;99.90;;;;;;5090766;27;20473;-72
2023/03/30 06:57:25;;;;;;;22.58;4.68;;;10.60;99.90;;;;;;5092752;27;20058;-73
2023/03/30 06:59:52;;;;;;;27.83;5.05;;;10.60;99.90;;;;;;5123116;27;20050;-72
2023/03/30 07:02:19;;;;;;;22.60;4.88;;;10.60;99.90;;;;;;5091687;27;20814;-73
2023/03/30 07:04:45;;;;;;;23.77;4.82;;;10.60;99.90;;;;;;5106043;27;20046;-72
2023/03/30 07:07:12;;;;;;;27.15;5.25;;;10.60;99.90;;;;;;5144457;27;22017;-73
2023/03/30 07:09:38;;;;;;;24.42;4.40;;;10.60;99.90;;;;;;5110603;27;20047;-72
2023/03/30 07:12:05;;;;;;;20.67;4.50;;;10.60;99.90;;;;;;5145789;27;20047;-73
2023/03/30 07:14:31;;;;;;;28.15;5.25;;;10.60;99.90;;;;;;5108828;27;20041;-73
2023/03/30 07:16:56;;;;;;;23.45;4.40;;;10.60;99.90;;;;;;5109001;27;20404;-73
2023/03/30 07:19:22;;;;;;;24.73;4.95;;;10.60;99.90;;;;;;5147902;27;20043;-72
2023/03/30 07:21:48;;;;;;;19.83;4.57;;;10.60;99.90;;;;;;5129632;27;20047;-72
2023/03/30 07:24:16;;;;;;;17.85;5.25;;;10.60;99.90;;;;;;5088905;27;20195;-73
2023/03/30 07:26:42;;;;;;;25.60;5.07;;;10.60;99.90;;;;;;5072570;27;20110;-73
2023/03/30 07:29:07;;;;;;;24.05;4.55;;;10.60;99.90;;;;;;5125550;27;20055;-72
2023/03/30 07:31:34;;;;;;;26.70;5.05;;;10.50;99.90;;;;;;5125216;27;20081;-72
2023/03/30 07:34:01;;;;;;;28.60;5.20;;;10.50;99.90;;;;;;5078752;27;20130;-73
2023/03/30 07:36:28;;;;;;;26.85;4.75;;;10.50;99.90;;;;;;5094423;27;20050;-72
2023/03/30 07:38:54;;;;;;;24.15;5.05;;;10.50;99.90;;;;;;5094656;27;20067;-72
2023/03/30 07:41:20;;;;;;;24.90;4.88;;;10.50;99.90;;;;;;5110147;27;20075;-73
2023/03/30 07:43:46;;;;;;;29.83;4.93;;;10.50;99.90;;;;;;5095125;27;20093;-72
2023/03/30 07:46:13;;;;;;;31.30;6.20;;;10.50;99.90;;;;;;5093399;27;20051;-71
2023/03/30 07:48:39;;;;;;;27.30;5.22;;;10.50;99.90;;;;;;5111877;27;20307;-72
2023/03/30 07:51:12;;;;;;;28.23;5.70;;;10.50;99.90;;;;;;5111359;27;20400;-72
2023/03/30 07:53:38;;;;;;;23.02;5.65;;;10.50;99.90;;;;;;5142955;27;20039;-72
2023/03/30 07:56:05;;;;;;;27.55;5.72;;;10.50;99.90;;;;;;5142611;27;20214;-72
2023/03/30 07:58:31;;;;;;;34.65;5.78;;;10.50;99.90;;;;;;5090521;27;20054;-72
2023/03/30 08:00:58;;;;;;;31.38;6.15;;;10.50;99.90;;;;;;5144592;27;20051;-71
2023/03/30 08:03:24;;;;;;;26.73;5.65;;;10.50;99.90;;;;;;5127729;27;20489;-73
2023/03/30 08:05:56;;;;;;;29.25;5.78;;;10.50;99.90;;;;;;5095184;27;20126;-73
2023/03/30 08:08:22;;;;;;;22.20;5.65;;;11.30;99.90;;;;;;5091313;27;20070;-71
2023/03/30 08:10:49;;;;;;;27.58;6.30;;;10.60;99.90;;;;;;5106908;27;20083;-72
2023/03/30 08:13:15;;;;;;;28.70;6.40;;;10.60;99.90;;;;;;5128561;27;20049;-72
2023/03/30 08:15:41;;;;;;;24.85;5.65;;;10.60;99.90;;;;;;5093353;27;20077;-72
2023/03/30 08:18:07;;;;;;;34.38;5.10;;;10.60;99.90;;;;;;5143593;27;20057;-72
2023/03/30 08:20:35;;;;;;;23.33;5.47;;;10.70;99.90;;;;;;5072274;27;20400;-72
2023/03/30 08:23:02;;;;;;;21.52;4.85;;;10.70;99.90;;;;;;5127981;27;20047;-72
2023/03/30 08:25:27;;;;;;;27.05;6.20;;;10.80;99.90;;;;;;5095633;27;20046;-71
2023/03/30 08:27:53;;;;;;;28.92;5.18;;;10.80;99.90;;;;;;5125193;27;20050;-72
2023/03/30 08:30:19;;;;;;;22.48;4.75;;;10.90;99.90;;;;;;5120140;27;20505;-72
2023/03/30 08:32:53;;;;;;;25.17;5.25;;;11.10;99.90;;;;;;5081604;27;20107;-76
2023/03/30 08:35:22;;;;;;;24.00;5.13;;;11.30;99.90;;;;;;5121019;27;20046;-72
2023/03/30 08:37:49;;;;;;;23.38;5.38;;;11.50;99.90;;;;;;5101683;27;20134;-73
2023/03/30 08:40:16;;;;;;;26.08;5.22;;;11.60;99.90;;;;;;5086764;27;20125;-74
2023/03/30 08:42:58;;;;;;;21.95;5.38;;;11.70;99.90;;;;;;5085824;27;20050;-72
2023/03/30 08:45:26;;;;;;;25.42;4.90;;;11.80;99.90;;;;;;5117342;27;20167;-75
2023/03/30 08:47:53;;;;;;;25.33;4.88;;;11.90;99.90;;;;;;5104751;27;20055;-74
2023/03/30 08:50:34;;;;;;;25.17;5.35;;;11.90;99.90;;;;;;5120053;27;20055;-73
2023/03/30 08:53:00;;;;;;;26.33;5.60;;;11.80;99.90;;;;;;5140441;27;20043;-73
2023/03/30 08:56:02;;;;;;;18.63;4.45;;;11.70;99.90;;;;;;5104841;27;20058;-73
2023/03/30 08:58:41;;;;;;;27.95;6.18;;;11.60;99.90;;;;;;5069610;27;20095;-74
2023/03/30 09:01:34;;;;;;;24.23;5.05;;;11.50;99.90;;;;;;5096550;27;20043;-73
2023/03/30 09:04:38;;;;;;;29.40;6.45;;;11.40;99.90;;;;;;5084049;27;20074;-73
2023/03/30 09:07:44;;;;;;;26.60;5.28;;;11.30;99.90;;;;;;5099782;27;20474;-71
2023/03/30 09:10:12;;;;;;;23.98;5.25;;;11.20;99.90;;;;;;5039543;28;20045;-71
2023/03/30 09:12:50;;;;;;;30.67;6.38;;;11.20;99.90;;;;;;5090408;27;20479;-71
2023/03/30 09:15:35;;;;;;;29.17;5.40;;;11.10;99.90;;;;;;5100765;27;20465;-72
2023/03/30 09:18:30;;;;;;;23.48;5.07;;;11.10;99.90;;;;;;5118402;27;20075;-72
2023/03/30 09:20:59;;;;;;;23.58;5.07;;;11.10;99.90;;;;;;5100687;28;20055;-71
2023/03/30 09:23:28;;;;;;;24.67;5.15;;;11.10;99.90;;;;;;5117464;27;20118;-72
2023/03/30 09:26:06;;;;;;;22.13;4.70;;;11.10;99.90;;;;;;5134868;27;20063;-72
2023/03/30 09:28:52;;;;;;;21.00;5.13;;;11.10;99.90;;;;;;5098168;28;20119;-71
2023/03/30 09:31:43;;;;;;;23.83;6.18;;;11.10;99.90;;;;;;5118348;27;20052;-72
2023/03/30 09:34:10;;;;;;;25.25;5.22;;;11.10;99.90;;;;;;5100022;28;20047;-71
2023/03/30 09:36:35;;;;;;;20.65;4.10;;;11.10;99.90;;;;;;5117329;27;20057;-72
2023/03/30 09:39:24;;;;;;;26.17;5.18;;;11.10;99.90;;;;;;5099895;28;20051;-72
2023/03/30 09:42:15;;;;;;;21.33;4.82;;;11.10;99.90;;;;;;5113863;27;20122;-71
2023/03/30 09:44:57;;;;;;;27.05;4.90;;;11.10;99.90;;;;;;5093751;28;20493;-72
2023/03/30 09:47:35;;;;;;;24.55;5.63;;;11.10;99.90;;;;;;5099603;28;20516;-72
2023/03/30 09:50:07;;;;;;;24.55;5.63;;;11.20;99.90;;;;;;5100743;28;20123;-71
2023/03/30 09:52:37;;;;;;;25.83;4.47;;;11.20;99.90;;;;;;5082304;28;20047;-71
2023/03/30 09:55:28;;;;;;;28.90;5.35;;;11.20;99.90;;;;;;5102424;28;20104;-71
2023/03/30 09:58:16;;;;;;;28.35;5.88;;;11.20;99.90;;;;;;5084663;28;20050;-71
2023/03/30 10:00:59;;;;;;;28.10;6.15;;;11.20;99.90;;;;;;5097720;28;20089;-71
2023/03/30 10:03:26;;;;;;;30.90;5.50;;;11.20;99.90;;;;;;5099442;28;20035;-71
2023/03/30 10:06:27;;;;;;;25.02;6.13;;;11.20;99.90;;;;;;5102297;27;20054;-71
2023/03/30 10:08:55;;;;;;;28.77;5.80;;;11.20;99.90;;;;;;4988765;28;20045;-72
2023/03/30 10:11:49;;;;;;;33.10;6.07;;;11.20;99.90;;;;;;5084155;28;20055;-74
2023/03/30 10:14:32;;;;;;;29.63;5.45;;;11.20;99.90;;;;;;5099631;28;20082;-71
2023/03/30 10:16:59;;;;;;;26.75;5.97;;;11.30;99.90;;;;;;5099095;27;20079;-73
2023/03/30 10:19:26;;;;;;;27.85;5.60;;;11.20;99.90;;;;;;5097380;27;20225;-71
2023/03/30 10:22:16;;;;;;;31.35;6.55;;;11.20;99.90;;;;;;5101916;27;20078;-71
2023/03/30 10:24:53;;;;;;;29.23;5.93;;;11.50;99.90;;;;;;5099731;27;20100;-72
2023/03/30 10:27:32;;;;;;;28.67;5.15;;;11.60;99.90;;;;;;5083104;27;20039;-73
2023/03/30 10:30:08;;;;;;;29.63;5.72;;;11.80;99.90;;;;;;5098338;28;20048;-75
2023/03/30 10:32:35;;;;;;;28.60;6.13;;;12.00;99.90;;;;;;5117980;27;20154;-74
2023/03/30 10:35:08;;;;;;;31.23;5.93;;;12.10;99.90;;;;;;5085298;27;20043;-74
2023/03/30 10:37:42;;;;;;;30.98;6.78;;;12.30;99.90;;;;;;5102580;27;20432;-75
2023/03/30 10:40:57;;;;;;;27.27;5.78;;;12.40;99.90;;;;;;5101824;27;20151;-74
2023/03/30 10:43:48;;;;;;;29.15;6.45;;;12.50;99.90;;;;;;5087667;27;20042;-75
2023/03/30 10:46:23;;;;;;;36.40;6.05;;;12.40;99.90;;;;;;5102573;27;20083;-72
2023/03/30 10:49:39;;;;;;;34.10;6.97;;;12.40;99.90;;;;;;5085909;27;20136;-75
2023/03/30 10:52:22;;;;;;;29.85;5.50;;;12.50;99.90;;;;;;5083858;27;20059;-73
2023/03/30 10:54:53;;;;;;;32.65;6.38;;;12.50;99.90;;;;;;5124559;27;20059;-73
2023/03/30 10:57:24;;;;;;;32.78;6.47;;;12.50;99.90;;;;;;5113341;27;20060;-73
2023/03/30 10:59:59;;;;;;;31.45;6.60;;;12.30;99.90;;;;;;5121537;27;20047;-82
2023/03/30 11:02:43;;;;;;;34.83;7.43;;;12.50;99.90;;;;;;5116585;27;20535;-73
2023/03/30 11:05:17;;;;;;;31.17;5.72;;;12.60;99.90;;;;;;5099222;27;20505;-72
2023/03/30 11:07:54;;;;;;;27.77;5.47;;;12.60;99.90;;;;;;5086302;27;20038;-72
2023/03/30 11:10:43;;;;;;;32.40;7.15;;;12.80;99.90;;;;;;5121631;27;20043;-72
2023/03/30 11:13:44;;;;;;;29.25;6.28;;;12.80;99.90;;;;;;5102362;27;20047;-73
2023/03/30 11:16:24;;;;;;;30.75;5.78;;;13.00;99.90;;;;;;5120338;27;20292;-72
2023/03/30 11:19:10;;;;;;;29.17;5.90;;;13.10;99.90;;;;;;5122013;27;20051;-73
2023/03/30 11:21:55;;;;;;;34.50;5.72;;;13.10;99.90;;;;;;5087795;27;20039;-71
2023/03/30 11:24:22;;;;;;;31.77;7.47;;;13.10;99.90;;;;;;5103818;27;21293;-74
2023/03/30 11:27:43;;;;;;;30.25;5.90;;;13.20;99.90;;;;;;5102500;27;20123;-74
2023/03/30 11:30:17;;;;;;;;;;;13.40;99.90;;;;;;5096795;27;20047;-74
2023/03/30 11:32:49;;;;;;;25.52;5.40;;;13.50;99.90;;;;;;5103315;27;20622;-73
2023/03/30 11:35:39;;;;;;;28.17;5.78;;;13.50;99.90;;;;;;5115102;27;20051;-73
2023/03/30 11:38:31;;;;;;;31.08;6.55;;;13.60;99.90;;;;;;5105990;27;22272;-75
2023/03/30 11:41:27;;;;;;;30.70;6.22;;;13.50;99.90;;;;;;5119876;27;20047;-75
2023/03/30 11:44:04;;;;;;;32.58;6.50;;;13.60;99.90;;;;;;5086215;27;20058;-82
2023/03/30 11:47:01;;;;;;;30.67;6.57;;;12.50;99.90;;;;;;5101827;27;20223;-76
2023/03/30 11:49:51;;;;;;;29.20;6.10;;;13.90;99.90;;;;;;5045437;27;20055;-72
2023/03/30 11:52:43;;;;;;;30.33;6.22;;;13.80;99.90;;;;;;5102351;27;20819;-74
2023/03/30 11:55:22;;;;;;;27.65;6.18;;;13.70;99.90;;;;;;5134472;27;20042;-71
2023/03/30 11:58:19;;;;;;;23.92;5.68;;;13.80;99.90;;;;;;5100473;27;20055;-72
2023/03/30 12:01:17;;;;;;;40.47;7.50;;;13.90;99.90;;;;;;5101997;27;20043;-73
2023/03/30 12:04:01;;;;;;;31.05;6.53;;;13.80;99.90;;;;;;5100111;27;20137;-70
2023/03/30 12:06:28;;;;;;;32.95;7.50;;;14.00;99.90;;;;;;5105073;27;20050;-71
2023/03/30 12:09:26;;;;;;;27.45;6.85;;;14.10;99.90;;;;;;5100561;27;20505;-71
2023/03/30 12:12:03;;;;;;;26.55;6.10;;;14.20;99.90;;;;;;5084701;27;20039;-72
2023/03/30 12:14:42;;;;;;;34.53;6.60;;;14.40;99.90;;;;;;5099938;27;20493;-69
2023/03/30 12:17:32;;;;;;;29.75;6.65;;;14.40;99.90;;;;;;5097005;27;20051;-70
2023/03/30 12:20:11;;;;;;;36.15;7.97;;;13.50;99.90;;;;;;5100155;27;20043;-84
2023/03/30 12:23:09;;;;;;;35.03;6.43;;;14.40;99.90;;;;;;5099319;27;20044;-71
2023/03/30 12:26:11;;;;;;;31.60;6.97;;;14.50;99.90;;;;;;5082802;27;20139;-74
2023/03/30 12:28:49;;;;;;;29.38;7.10;;;14.50;99.90;;;;;;5099801;27;20046;-73
2023/03/30 12:31:16;;;;;;;36.47;7.43;;;14.60;99.90;;;;;;5100305;27;20039;-70
2023/03/30 12:33:56;;;;;;;34.50;7.57;;;14.60;99.90;;;;;;5117473;27;20055;-72
2023/03/30 12:36:59;;;;;;;29.75;6.20;;;14.60;99.90;;;;;;5113278;27;20068;-78
2023/03/30 12:40:08;;;;;;;30.88;6.03;;;14.60;99.90;;;;;;5129481;27;20055;-74
2023/03/30 12:42:45;;;;;;;37.22;6.93;;;14.50;99.90;;;;;;5119003;27;20055;-72
2023/03/30 12:45:33;;;;;;;30.73;6.50;;;14.60;99.90;;;;;;5093262;28;20060;-76
2023/03/30 12:48:13;;;;;;;;;;;14.60;99.90;;;;;;5076577;27;20055;-72
2023/03/30 12:51:15;;;;;;;30.88;7.30;;;14.60;99.90;;;;;;5077631;28;19931;-72
2023/03/30 12:54:19;;;;;;;35.53;7.50;;;14.60;99.90;;;;;;5089623;28;20054;-76
2023/03/30 12:57:16;;;;;;;37.10;6.63;;;14.80;99.90;;;;;;5076595;28;20132;-71
2023/03/30 13:00:27;;;;;;;30.88;6.90;;;15.00;99.90;;;;;;5077694;28;20039;-72
2023/03/30 13:03:30;;;;;;;29.85;6.68;;;15.00;99.90;;;;;;5076069;28;20055;-74
2023/03/30 13:06:49;;;;;;;31.60;7.65;;;15.20;99.90;;;;;;5078106;28;20054;-74
2023/03/30 13:10:02;;;;;;;34.72;6.53;;;15.30;99.90;;;;;;5044200;28;20052;-78
2023/03/30 13:13:14;;;;;;;26.38;6.18;;;15.30;99.90;;;;;;5075300;28;20044;-77
2023/03/30 13:16:02;;;;;;;33.95;6.68;;;15.30;99.90;;;;;;5077676;28;20428;-73
2023/03/30 13:18:49;;;;;;;;;;;15.30;99.90;;;;;;5076097;28;20177;-78